sensor_id;sensor_type;location;lat;lon;timestamp;temperature;humidity
15574;DHT22;7888;46.748;8.102;2023-12-20T10:29:33;8.70;73.20
15574;DHT22;7888;46.748;8.102;2023-12-20T10:34:50;8.60;72.80
15574;DHT22;7888;46.748;8.102;2023-12-20T10:37:16;8.60;72.70
15574;DHT22;7888;46.748;8.102;2023-12-20T10:39:50;8.60;72.90
15574;DHT22;7888;46.748;8.102;2023-12-20T10:42:20;8.60;73.30
15574;DHT22;7888;46.748;8.102;2023-12-20T10:44:48;8.70;73.30
15574;DHT22;7888;46.748;8.102;2023-12-20T10:47:14;8.70;73.40
15574;DHT22;7888;46.748;8.102;2023-12-20T10:49:40;8.70;73.50
15574;DHT22;7888;46.748;8.102;2023-12-20T10:52:08;8.80;73.70
15574;DHT22;7888;46.748;8.102;2023-12-20T10:54:34;8.80;73.40
15574;DHT22;7888;46.748;8.102;2023-12-20T10:57:05;8.80;73.20
15574;DHT22;7888;46.748;8.102;2023-12-20T10:59:33;8.80;73.10
15574;DHT22;7888;46.748;8.102;2023-12-20T11:02:03;8.80;73.10
15574;DHT22;7888;46.748;8.102;2023-12-20T11:04:55;8.80;73.10
15574;DHT22;7888;46.748;8.102;2023-12-20T11:07:46;8.90;73.50
15574;DHT22;7888;46.748;8.102;2023-12-20T11:10:36;8.90;73.60
15574;DHT22;7888;46.748;8.102;2023-12-20T11:13:26;8.90;73.70
15574;DHT22;7888;46.748;8.102;2023-12-20T11:15:55;8.90;73.40
15574;DHT22;7888;46.748;8.102;2023-12-20T11:18:31;8.90;73.00
15574;DHT22;7888;46.748;8.102;2023-12-20T11:21:06;8.90;73.00
15574;DHT22;7888;46.748;8.102;2023-12-20T11:23:32;9.00;73.10
15574;DHT22;7888;46.748;8.102;2023-12-20T11:25:59;9.00;73.00
15574;DHT22;7888;46.748;8.102;2023-12-20T11:28:27;9.00;72.90
15574;DHT22;7888;46.748;8.102;2023-12-20T11:30:54;9.00;73.00
15574;DHT22;7888;46.748;8.102;2023-12-20T11:33:26;9.00;73.20
15574;DHT22;7888;46.748;8.102;2023-12-20T11:35:57;9.00;73.30
15574;DHT22;7888;46.748;8.102;2023-12-20T11:38:25;9.00;73.10
15574;DHT22;7888;46.748;8.102;2023-12-20T11:40:54;9.00;73.00
15574;DHT22;7888;46.748;8.102;2023-12-20T11:43:37;9.10;73.10
15574;DHT22;7888;46.748;8.102;2023-12-20T11:46:08;9.10;73.30
15574;DHT22;7888;46.748;8.102;2023-12-20T11:48:36;9.10;73.30
15574;DHT22;7888;46.748;8.102;2023-12-20T11:51:12;9.10;72.90
15574;DHT22;7888;46.748;8.102;2023-12-20T11:53:39;9.10;72.70
15574;DHT22;7888;46.748;8.102;2023-12-20T11:56:06;9.10;72.60
15574;DHT22;7888;46.748;8.102;2023-12-20T11:58:33;9.10;72.60
15574;DHT22;7888;46.748;8.102;2023-12-20T12:00:59;9.10;72.60
15574;DHT22;7888;46.748;8.102;2023-12-20T12:03:26;9.10;72.70
15574;DHT22;7888;46.748;8.102;2023-12-20T12:05:51;9.10;73.40
15574;DHT22;7888;46.748;8.102;2023-12-20T12:08:17;9.20;73.10
15574;DHT22;7888;46.748;8.102;2023-12-20T12:10:44;9.10;73.10
15574;DHT22;7888;46.748;8.102;2023-12-20T12:13:11;9.20;73.20
15574;DHT22;7888;46.748;8.102;2023-12-20T12:15:37;9.20;73.20
15574;DHT22;7888;46.748;8.102;2023-12-20T12:18:03;9.20;73.30
15574;DHT22;7888;46.748;8.102;2023-12-20T12:20:30;9.20;73.40
15574;DHT22;7888;46.748;8.102;2023-12-20T12:23:04;9.30;73.60
15574;DHT22;7888;46.748;8.102;2023-12-20T12:25:32;9.30;73.70
15574;DHT22;7888;46.748;8.102;2023-12-20T12:28:01;9.30;73.40
15574;DHT22;7888;46.748;8.102;2023-12-20T12:30:27;9.30;73.30
15574;DHT22;7888;46.748;8.102;2023-12-20T12:32:53;9.40;73.20
15574;DHT22;7888;46.748;8.102;2023-12-20T12:35:20;9.40;73.20
15574;DHT22;7888;46.748;8.102;2023-12-20T12:37:46;9.40;73.20
15574;DHT22;7888;46.748;8.102;2023-12-20T12:40:13;9.40;73.30
15574;DHT22;7888;46.748;8.102;2023-12-20T12:42:42;9.50;73.20
15574;DHT22;7888;46.748;8.102;2023-12-20T12:45:09;9.50;73.10
15574;DHT22;7888;46.748;8.102;2023-12-20T12:47:37;9.50;73.30
15574;DHT22;7888;46.748;8.102;2023-12-20T12:50:04;9.50;73.30
15574;DHT22;7888;46.748;8.102;2023-12-20T12:52:31;9.50;74.10
15574;DHT22;7888;46.748;8.102;2023-12-20T12:54:57;9.60;73.40
15574;DHT22;7888;46.748;8.102;2023-12-20T12:57:23;9.60;73.20
15574;DHT22;7888;46.748;8.102;2023-12-20T12:59:49;9.60;73.00
15574;DHT22;7888;46.748;8.102;2023-12-20T13:02:15;9.60;72.90
15574;DHT22;7888;46.748;8.102;2023-12-20T13:04:42;9.70;72.90
15574;DHT22;7888;46.748;8.102;2023-12-20T13:07:08;9.70;72.80
15574;DHT22;7888;46.748;8.102;2023-12-20T13:09:38;9.60;72.80
15574;DHT22;7888;46.748;8.102;2023-12-20T13:12:06;9.70;72.90
15574;DHT22;7888;46.748;8.102;2023-12-20T13:14:34;9.60;72.90
15574;DHT22;7888;46.748;8.102;2023-12-20T13:17:02;9.70;73.00
15574;DHT22;7888;46.748;8.102;2023-12-20T13:19:29;9.70;73.00
15574;DHT22;7888;46.748;8.102;2023-12-20T13:21:55;9.70;73.00
15574;DHT22;7888;46.748;8.102;2023-12-20T13:24:21;9.70;73.10
15574;DHT22;7888;46.748;8.102;2023-12-20T13:26:47;9.70;73.30
15574;DHT22;7888;46.748;8.102;2023-12-20T13:29:13;9.80;73.40
15574;DHT22;7888;46.748;8.102;2023-12-20T13:31:39;9.80;73.40
15574;DHT22;7888;46.748;8.102;2023-12-20T13:34:06;9.80;73.20
15574;DHT22;7888;46.748;8.102;2023-12-20T13:36:32;9.80;72.60
15574;DHT22;7888;46.748;8.102;2023-12-20T13:38:57;9.80;72.50
15574;DHT22;7888;46.748;8.102;2023-12-20T13:41:23;9.80;72.50
15574;DHT22;7888;46.748;8.102;2023-12-20T13:43:49;9.80;72.60
15574;DHT22;7888;46.748;8.102;2023-12-20T13:46:15;9.80;72.80
15574;DHT22;7888;46.748;8.102;2023-12-20T13:48:40;9.80;72.80
15574;DHT22;7888;46.748;8.102;2023-12-20T13:51:06;9.80;72.70
15574;DHT22;7888;46.748;8.102;2023-12-20T13:53:33;9.80;72.70
15574;DHT22;7888;46.748;8.102;2023-12-20T13:55:58;9.80;72.70
15574;DHT22;7888;46.748;8.102;2023-12-20T13:58:25;9.80;72.70
15574;DHT22;7888;46.748;8.102;2023-12-20T14:00:51;9.80;73.50
15574;DHT22;7888;46.748;8.102;2023-12-20T14:03:17;9.80;72.70
15574;DHT22;7888;46.748;8.102;2023-12-20T14:05:45;9.80;72.60
15574;DHT22;7888;46.748;8.102;2023-12-20T14:08:11;9.90;72.60
15574;DHT22;7888;46.748;8.102;2023-12-20T14:10:37;9.80;72.40
15574;DHT22;7888;46.748;8.102;2023-12-20T14:13:04;9.80;72.40
15574;DHT22;7888;46.748;8.102;2023-12-20T14:15:31;9.90;72.40
15574;DHT22;7888;46.748;8.102;2023-12-20T14:18:04;9.90;72.50
15574;DHT22;7888;46.748;8.102;2023-12-20T14:20:31;9.90;72.40
15574;DHT22;7888;46.748;8.102;2023-12-20T14:23:03;9.90;72.40
15574;DHT22;7888;46.748;8.102;2023-12-20T14:25:29;9.90;72.40
15574;DHT22;7888;46.748;8.102;2023-12-20T14:27:56;10.00;72.40
15574;DHT22;7888;46.748;8.102;2023-12-20T14:30:22;10.00;72.30
15574;DHT22;7888;46.748;8.102;2023-12-20T14:32:48;10.00;72.30
15574;DHT22;7888;46.748;8.102;2023-12-20T14:35:14;10.00;73.00
15574;DHT22;7888;46.748;8.102;2023-12-20T14:37:40;10.00;72.20
15574;DHT22;7888;46.748;8.102;2023-12-20T14:40:07;10.00;72.10
15574;DHT22;7888;46.748;8.102;2023-12-20T14:42:41;10.00;71.90
15574;DHT22;7888;46.748;8.102;2023-12-20T14:45:08;10.00;71.90
15574;DHT22;7888;46.748;8.102;2023-12-20T14:47:34;10.00;71.80
15574;DHT22;7888;46.748;8.102;2023-12-20T14:50:02;10.00;71.90
15574;DHT22;7888;46.748;8.102;2023-12-20T14:52:29;10.00;71.90
15574;DHT22;7888;46.748;8.102;2023-12-20T14:54:55;10.00;71.90
15574;DHT22;7888;46.748;8.102;2023-12-20T14:57:21;10.00;71.90
15574;DHT22;7888;46.748;8.102;2023-12-20T14:59:47;10.00;71.90
15574;DHT22;7888;46.748;8.102;2023-12-20T15:02:13;10.00;72.00
15574;DHT22;7888;46.748;8.102;2023-12-20T15:04:38;10.00;71.90
15574;DHT22;7888;46.748;8.102;2023-12-20T15:07:04;10.00;72.20
15574;DHT22;7888;46.748;8.102;2023-12-20T15:09:31;10.00;72.30
15574;DHT22;7888;46.748;8.102;2023-12-20T15:11:57;10.00;72.10
15574;DHT22;7888;46.748;8.102;2023-12-20T15:14:23;10.00;72.00
15574;DHT22;7888;46.748;8.102;2023-12-20T15:16:49;10.00;71.90
15574;DHT22;7888;46.748;8.102;2023-12-20T15:19:15;10.00;71.80
15574;DHT22;7888;46.748;8.102;2023-12-20T15:21:41;10.00;71.80
15574;DHT22;7888;46.748;8.102;2023-12-20T15:24:10;10.00;71.70
15574;DHT22;7888;46.748;8.102;2023-12-20T15:26:41;10.00;71.50
15574;DHT22;7888;46.748;8.102;2023-12-20T15:29:08;10.00;71.30
15574;DHT22;7888;46.748;8.102;2023-12-20T15:31:45;10.00;71.00
15574;DHT22;7888;46.748;8.102;2023-12-20T15:34:12;10.00;70.50
15574;DHT22;7888;46.748;8.102;2023-12-20T15:36:39;10.00;70.50
15574;DHT22;7888;46.748;8.102;2023-12-20T15:39:06;10.00;70.30
15574;DHT22;7888;46.748;8.102;2023-12-20T15:41:34;9.90;70.00
15574;DHT22;7888;46.748;8.102;2023-12-20T15:44:00;9.90;69.60
15574;DHT22;7888;46.748;8.102;2023-12-20T15:46:25;9.90;69.40
15574;DHT22;7888;46.748;8.102;2023-12-20T15:48:51;9.90;69.20
15574;DHT22;7888;46.748;8.102;2023-12-20T15:51:20;9.80;69.00
15574;DHT22;7888;46.748;8.102;2023-12-20T15:53:47;9.80;68.50
15574;DHT22;7888;46.748;8.102;2023-12-20T15:56:13;9.70;68.70
15574;DHT22;7888;46.748;8.102;2023-12-20T15:58:39;9.70;68.50
15574;DHT22;7888;46.748;8.102;2023-12-20T16:01:05;9.70;68.60
15574;DHT22;7888;46.748;8.102;2023-12-20T16:03:30;9.70;68.50
15574;DHT22;7888;46.748;8.102;2023-12-20T16:05:56;9.60;68.40
15574;DHT22;7888;46.748;8.102;2023-12-20T16:08:24;9.60;68.30
15574;DHT22;7888;46.748;8.102;2023-12-20T16:10:49;9.50;68.10
15574;DHT22;7888;46.748;8.102;2023-12-20T16:13:15;9.60;68.10
15574;DHT22;7888;46.748;8.102;2023-12-20T16:15:41;9.50;67.90
15574;DHT22;7888;46.748;8.102;2023-12-20T16:18:08;9.50;67.90
15574;DHT22;7888;46.748;8.102;2023-12-20T16:20:37;9.50;67.80
15574;DHT22;7888;46.748;8.102;2023-12-20T16:23:03;9.50;67.60
15574;DHT22;7888;46.748;8.102;2023-12-20T16:25:29;9.40;67.60
15574;DHT22;7888;46.748;8.102;2023-12-20T16:27:56;9.40;68.50
15574;DHT22;7888;46.748;8.102;2023-12-20T16:30:21;9.40;67.70
15574;DHT22;7888;46.748;8.102;2023-12-20T16:32:47;9.40;67.70
15574;DHT22;7888;46.748;8.102;2023-12-20T16:35:13;9.40;67.70
15574;DHT22;7888;46.748;8.102;2023-12-20T16:37:39;9.40;67.60
15574;DHT22;7888;46.748;8.102;2023-12-20T16:40:06;9.30;67.50
15574;DHT22;7888;46.748;8.102;2023-12-20T16:42:33;9.30;67.40
15574;DHT22;7888;46.748;8.102;2023-12-20T16:44:59;9.40;67.50
15574;DHT22;7888;46.748;8.102;2023-12-20T16:47:25;9.40;67.30
15574;DHT22;7888;46.748;8.102;2023-12-20T16:49:50;9.40;67.10
15574;DHT22;7888;46.748;8.102;2023-12-20T16:52:16;9.40;66.90
15574;DHT22;7888;46.748;8.102;2023-12-20T16:54:42;9.30;66.80
15574;DHT22;7888;46.748;8.102;2023-12-20T16:57:08;9.30;66.60
15574;DHT22;7888;46.748;8.102;2023-12-20T16:59:33;9.30;66.80
15574;DHT22;7888;46.748;8.102;2023-12-20T17:01:59;9.30;67.30
15574;DHT22;7888;46.748;8.102;2023-12-20T17:04:27;9.30;66.40
15574;DHT22;7888;46.748;8.102;2023-12-20T17:06:53;9.30;66.20
15574;DHT22;7888;46.748;8.102;2023-12-20T17:09:19;9.30;66.20
15574;DHT22;7888;46.748;8.102;2023-12-20T17:11:44;9.30;66.20
15574;DHT22;7888;46.748;8.102;2023-12-20T17:14:10;9.20;66.10
15574;DHT22;7888;46.748;8.102;2023-12-20T17:16:38;9.20;66.10
15574;DHT22;7888;46.748;8.102;2023-12-20T17:19:04;9.20;65.90
15574;DHT22;7888;46.748;8.102;2023-12-20T17:21:31;9.20;65.70
15574;DHT22;7888;46.748;8.102;2023-12-20T17:23:56;9.20;65.50
15574;DHT22;7888;46.748;8.102;2023-12-20T17:26:22;9.20;65.70
15574;DHT22;7888;46.748;8.102;2023-12-20T17:28:48;9.20;65.50
15574;DHT22;7888;46.748;8.102;2023-12-20T17:31:14;9.20;65.40
15574;DHT22;7888;46.748;8.102;2023-12-20T17:33:40;9.10;65.30
15574;DHT22;7888;46.748;8.102;2023-12-20T17:36:06;9.10;65.30
15574;DHT22;7888;46.748;8.102;2023-12-20T17:38:32;9.20;65.20
15574;DHT22;7888;46.748;8.102;2023-12-20T17:41:02;9.10;65.30
15574;DHT22;7888;46.748;8.102;2023-12-20T17:43:28;9.10;65.10
15574;DHT22;7888;46.748;8.102;2023-12-20T17:45:54;9.10;65.10
15574;DHT22;7888;46.748;8.102;2023-12-20T17:48:20;9.10;65.10
15574;DHT22;7888;46.748;8.102;2023-12-20T17:50:47;9.10;65.00
15574;DHT22;7888;46.748;8.102;2023-12-20T17:53:13;9.10;65.10
15574;DHT22;7888;46.748;8.102;2023-12-20T17:55:39;9.10;65.20
15574;DHT22;7888;46.748;8.102;2023-12-20T17:58:05;9.10;65.10
15574;DHT22;7888;46.748;8.102;2023-12-20T18:00:35;9.10;65.10
15574;DHT22;7888;46.748;8.102;2023-12-20T18:03:01;9.10;64.40
15574;DHT22;7888;46.748;8.102;2023-12-20T18:05:27;9.10;64.90
15574;DHT22;7888;46.748;8.102;2023-12-20T18:07:53;9.10;64.90
15574;DHT22;7888;46.748;8.102;2023-12-20T18:10:19;9.10;64.80
15574;DHT22;7888;46.748;8.102;2023-12-20T18:12:46;9.10;64.60
15574;DHT22;7888;46.748;8.102;2023-12-20T18:15:13;9.10;64.40
15574;DHT22;7888;46.748;8.102;2023-12-20T18:17:40;9.10;64.20
15574;DHT22;7888;46.748;8.102;2023-12-20T18:20:07;9.10;64.20
15574;DHT22;7888;46.748;8.102;2023-12-20T18:22:33;9.10;64.30
15574;DHT22;7888;46.748;8.102;2023-12-20T18:24:59;9.10;64.30
15574;DHT22;7888;46.748;8.102;2023-12-20T18:27:25;9.10;64.20
15574;DHT22;7888;46.748;8.102;2023-12-20T18:29:51;9.10;64.10
15574;DHT22;7888;46.748;8.102;2023-12-20T18:32:17;9.10;63.90
15574;DHT22;7888;46.748;8.102;2023-12-20T18:34:43;9.10;64.10
15574;DHT22;7888;46.748;8.102;2023-12-20T18:37:09;9.10;64.20
15574;DHT22;7888;46.748;8.102;2023-12-20T18:39:39;9.10;64.30
15574;DHT22;7888;46.748;8.102;2023-12-20T18:42:06;9.10;63.70
15574;DHT22;7888;46.748;8.102;2023-12-20T18:44:35;9.10;64.00
15574;DHT22;7888;46.748;8.102;2023-12-20T18:47:01;9.10;64.00
15574;DHT22;7888;46.748;8.102;2023-12-20T18:49:27;9.10;64.00
15574;DHT22;7888;46.748;8.102;2023-12-20T18:51:53;9.10;63.80
15574;DHT22;7888;46.748;8.102;2023-12-20T18:54:19;9.10;63.90
15574;DHT22;7888;46.748;8.102;2023-12-20T18:56:46;9.10;63.90
15574;DHT22;7888;46.748;8.102;2023-12-20T18:59:13;9.10;63.80
15574;DHT22;7888;46.748;8.102;2023-12-20T19:01:42;9.10;63.90
15574;DHT22;7888;46.748;8.102;2023-12-20T19:04:08;9.10;63.80
15574;DHT22;7888;46.748;8.102;2023-12-20T19:06:34;9.10;63.80
15574;DHT22;7888;46.748;8.102;2023-12-20T19:09:00;9.10;64.00
15574;DHT22;7888;46.748;8.102;2023-12-20T19:11:25;9.10;63.90
15574;DHT22;7888;46.748;8.102;2023-12-20T19:13:51;9.10;63.70
15574;DHT22;7888;46.748;8.102;2023-12-20T19:16:17;9.10;63.70
15574;DHT22;7888;46.748;8.102;2023-12-20T19:18:43;9.20;63.70
15574;DHT22;7888;46.748;8.102;2023-12-20T19:21:09;9.20;63.50
15574;DHT22;7888;46.748;8.102;2023-12-20T19:23:34;9.20;63.40
15574;DHT22;7888;46.748;8.102;2023-12-20T19:26:00;9.20;63.20
15574;DHT22;7888;46.748;8.102;2023-12-20T19:28:28;9.20;63.20
15574;DHT22;7888;46.748;8.102;2023-12-20T19:30:54;9.10;63.00
15574;DHT22;7888;46.748;8.102;2023-12-20T19:33:21;9.10;63.10
15574;DHT22;7888;46.748;8.102;2023-12-20T19:35:48;9.10;63.00
15574;DHT22;7888;46.748;8.102;2023-12-20T19:38:13;9.10;63.10
15574;DHT22;7888;46.748;8.102;2023-12-20T19:40:41;9.00;63.00
15574;DHT22;7888;46.748;8.102;2023-12-20T19:43:07;9.10;63.10
15574;DHT22;7888;46.748;8.102;2023-12-20T19:45:34;9.10;63.10
15574;DHT22;7888;46.748;8.102;2023-12-20T19:48:00;9.00;62.90
15574;DHT22;7888;46.748;8.102;2023-12-20T19:50:26;9.00;62.90
15574;DHT22;7888;46.748;8.102;2023-12-20T19:52:52;9.00;62.90
15574;DHT22;7888;46.748;8.102;2023-12-20T19:55:17;9.00;62.90
15574;DHT22;7888;46.748;8.102;2023-12-20T19:57:43;9.00;62.90
15574;DHT22;7888;46.748;8.102;2023-12-20T20:00:09;9.00;62.90
15574;DHT22;7888;46.748;8.102;2023-12-20T20:02:35;9.00;62.80
15574;DHT22;7888;46.748;8.102;2023-12-20T20:05:04;9.00;62.80
15574;DHT22;7888;46.748;8.102;2023-12-20T20:07:32;9.00;63.00
15574;DHT22;7888;46.748;8.102;2023-12-20T20:09:58;9.00;63.30
15574;DHT22;7888;46.748;8.102;2023-12-20T20:12:24;9.00;63.30
15574;DHT22;7888;46.748;8.102;2023-12-20T20:14:50;9.00;63.20
15574;DHT22;7888;46.748;8.102;2023-12-20T20:17:16;9.00;63.80
15574;DHT22;7888;46.748;8.102;2023-12-20T20:19:42;9.00;64.00
15574;DHT22;7888;46.748;8.102;2023-12-20T20:22:08;9.00;64.10
15574;DHT22;7888;46.748;8.102;2023-12-20T20:24:33;9.00;64.00
15574;DHT22;7888;46.748;8.102;2023-12-20T20:26:59;9.00;64.20
15574;DHT22;7888;46.748;8.102;2023-12-20T20:29:25;9.00;64.30
15574;DHT22;7888;46.748;8.102;2023-12-20T20:31:51;9.10;64.10
15574;DHT22;7888;46.748;8.102;2023-12-20T20:34:16;9.10;64.40
15574;DHT22;7888;46.748;8.102;2023-12-20T20:36:44;9.10;64.10
15574;DHT22;7888;46.748;8.102;2023-12-20T20:39:10;9.00;64.30
15574;DHT22;7888;46.748;8.102;2023-12-20T20:41:37;9.10;64.80
15574;DHT22;7888;46.748;8.102;2023-12-20T20:44:03;9.10;65.30
15574;DHT22;7888;46.748;8.102;2023-12-20T20:46:29;9.10;65.30
15574;DHT22;7888;46.748;8.102;2023-12-20T20:48:55;9.10;65.40
15574;DHT22;7888;46.748;8.102;2023-12-20T20:51:21;9.10;65.40
15574;DHT22;7888;46.748;8.102;2023-12-20T20:53:47;9.10;65.30
15574;DHT22;7888;46.748;8.102;2023-12-20T20:56:13;9.20;65.00
15574;DHT22;7888;46.748;8.102;2023-12-20T20:58:39;9.20;64.50
15574;DHT22;7888;46.748;8.102;2023-12-20T21:01:05;9.10;65.00
15574;DHT22;7888;46.748;8.102;2023-12-20T21:03:31;9.20;64.10
15574;DHT22;7888;46.748;8.102;2023-12-20T21:05:57;9.10;63.80
15574;DHT22;7888;46.748;8.102;2023-12-20T21:08:23;9.10;63.80
15574;DHT22;7888;46.748;8.102;2023-12-20T21:10:48;9.00;63.80
15574;DHT22;7888;46.748;8.102;2023-12-20T21:13:15;9.00;63.80
15574;DHT22;7888;46.748;8.102;2023-12-20T21:15:41;9.00;63.80
15574;DHT22;7888;46.748;8.102;2023-12-20T21:18:07;8.90;63.40
15574;DHT22;7888;46.748;8.102;2023-12-20T21:20:32;8.90;63.70
15574;DHT22;7888;46.748;8.102;2023-12-20T21:22:58;8.90;63.80
15574;DHT22;7888;46.748;8.102;2023-12-20T21:25:24;8.90;63.80
15574;DHT22;7888;46.748;8.102;2023-12-20T21:27:50;8.90;63.90
15574;DHT22;7888;46.748;8.102;2023-12-20T21:30:17;8.90;63.90
15574;DHT22;7888;46.748;8.102;2023-12-20T21:32:43;8.80;64.00
15574;DHT22;7888;46.748;8.102;2023-12-20T21:35:11;8.80;64.00
15574;DHT22;7888;46.748;8.102;2023-12-20T21:37:37;8.80;64.20
15574;DHT22;7888;46.748;8.102;2023-12-20T21:40:03;8.80;63.70
15574;DHT22;7888;46.748;8.102;2023-12-20T21:42:30;8.80;63.80
15574;DHT22;7888;46.748;8.102;2023-12-20T21:44:56;8.80;64.20
15574;DHT22;7888;46.748;8.102;2023-12-20T21:47:22;8.70;64.20
15574;DHT22;7888;46.748;8.102;2023-12-20T21:49:48;8.80;64.20
15574;DHT22;7888;46.748;8.102;2023-12-20T21:52:14;8.70;64.20
15574;DHT22;7888;46.748;8.102;2023-12-20T21:54:40;8.70;64.30
15574;DHT22;7888;46.748;8.102;2023-12-20T21:57:06;8.70;64.50
15574;DHT22;7888;46.748;8.102;2023-12-20T21:59:31;8.70;64.50
15574;DHT22;7888;46.748;8.102;2023-12-20T22:01:57;8.60;64.40
15574;DHT22;7888;46.748;8.102;2023-12-20T22:04:23;8.60;64.20
15574;DHT22;7888;46.748;8.102;2023-12-20T22:06:48;8.60;64.30
15574;DHT22;7888;46.748;8.102;2023-12-20T22:09:14;8.60;64.40
15574;DHT22;7888;46.748;8.102;2023-12-20T22:11:40;8.60;64.40
15574;DHT22;7888;46.748;8.102;2023-12-20T22:14:06;8.60;64.40
15574;DHT22;7888;46.748;8.102;2023-12-20T22:16:32;8.60;64.20
15574;DHT22;7888;46.748;8.102;2023-12-20T22:19:00;8.50;64.20
15574;DHT22;7888;46.748;8.102;2023-12-20T22:21:26;8.50;64.20
15574;DHT22;7888;46.748;8.102;2023-12-20T22:23:52;8.40;64.40
15574;DHT22;7888;46.748;8.102;2023-12-20T22:26:18;8.40;64.50
15574;DHT22;7888;46.748;8.102;2023-12-20T22:28:44;8.40;64.80
15574;DHT22;7888;46.748;8.102;2023-12-20T22:31:10;8.40;64.90
15574;DHT22;7888;46.748;8.102;2023-12-20T22:33:36;8.30;65.00
15574;DHT22;7888;46.748;8.102;2023-12-20T22:36:02;8.30;65.10
15574;DHT22;7888;46.748;8.102;2023-12-20T22:38:28;8.30;65.30
15574;DHT22;7888;46.748;8.102;2023-12-20T22:40:56;8.30;65.50
15574;DHT22;7888;46.748;8.102;2023-12-20T22:43:22;8.30;65.50
15574;DHT22;7888;46.748;8.102;2023-12-20T22:45:47;8.30;65.50
15574;DHT22;7888;46.748;8.102;2023-12-20T22:48:13;8.30;65.50
15574;DHT22;7888;46.748;8.102;2023-12-20T22:50:39;8.30;65.60
15574;DHT22;7888;46.748;8.102;2023-12-20T22:53:05;8.30;65.60
15574;DHT22;7888;46.748;8.102;2023-12-20T22:55:31;8.30;65.60
15574;DHT22;7888;46.748;8.102;2023-12-20T22:57:56;8.30;65.60
15574;DHT22;7888;46.748;8.102;2023-12-20T23:00:22;8.30;65.50
15574;DHT22;7888;46.748;8.102;2023-12-20T23:02:52;8.20;65.30
15574;DHT22;7888;46.748;8.102;2023-12-20T23:05:19;8.20;65.40
15574;DHT22;7888;46.748;8.102;2023-12-20T23:07:45;8.20;65.60
15574;DHT22;7888;46.748;8.102;2023-12-20T23:10:13;8.20;66.40
15574;DHT22;7888;46.748;8.102;2023-12-20T23:12:39;8.20;65.70
15574;DHT22;7888;46.748;8.102;2023-12-20T23:15:05;8.20;65.80
15574;DHT22;7888;46.748;8.102;2023-12-20T23:17:31;8.20;65.80
15574;DHT22;7888;46.748;8.102;2023-12-20T23:19:57;8.20;65.90
15574;DHT22;7888;46.748;8.102;2023-12-20T23:22:22;8.20;65.80
15574;DHT22;7888;46.748;8.102;2023-12-20T23:24:48;8.20;65.80
15574;DHT22;7888;46.748;8.102;2023-12-20T23:27:14;8.20;65.70
15574;DHT22;7888;46.748;8.102;2023-12-20T23:29:40;8.20;65.70
15574;DHT22;7888;46.748;8.102;2023-12-20T23:32:06;8.20;65.70
15574;DHT22;7888;46.748;8.102;2023-12-20T23:34:32;8.20;65.90
15574;DHT22;7888;46.748;8.102;2023-12-20T23:36:58;8.20;65.90
15574;DHT22;7888;46.748;8.102;2023-12-20T23:39:24;8.20;65.90
15574;DHT22;7888;46.748;8.102;2023-12-20T23:41:50;8.20;66.00
15574;DHT22;7888;46.748;8.102;2023-12-20T23:44:15;8.20;66.00
15574;DHT22;7888;46.748;8.102;2023-12-20T23:46:41;8.20;66.00
15574;DHT22;7888;46.748;8.102;2023-12-20T23:49:07;8.20;66.00
15574;DHT22;7888;46.748;8.102;2023-12-20T23:51:33;8.20;66.00
15574;DHT22;7888;46.748;8.102;2023-12-20T23:53:59;8.10;66.00
15574;DHT22;7888;46.748;8.102;2023-12-20T23:56:25;8.20;66.10
15574;DHT22;7888;46.748;8.102;2023-12-20T23:58:51;8.10;66.10
